createdAt,value
2018-04-24T00:01:51.871Z,9.90
2018-04-24T00:04:18.134Z,9.90
2018-04-24T00:06:44.363Z,10.00
2018-04-24T00:09:10.591Z,10.00
2018-04-24T00:11:36.771Z,10.10
2018-04-24T00:14:02.967Z,10.00
2018-04-24T00:16:29.949Z,10.10
2018-04-24T00:18:56.245Z,10.10
2018-04-24T00:21:22.516Z,10.00
2018-04-24T00:23:48.667Z,10.00
2018-04-24T00:26:14.908Z,10.00
2018-04-24T00:28:41.093Z,10.00
2018-04-24T00:31:07.311Z,9.90
2018-04-24T00:33:33.588Z,9.90
2018-04-24T00:35:59.783Z,9.90
2018-04-24T00:38:26.070Z,9.90
2018-04-24T00:40:52.984Z,9.80
2018-04-24T00:43:19.939Z,9.70
2018-04-24T00:45:46.180Z,9.70
2018-04-24T00:48:12.328Z,9.70
2018-04-24T00:50:39.272Z,9.70
2018-04-24T00:53:27.163Z,9.80
2018-04-24T00:55:53.398Z,9.80
2018-04-24T00:58:19.608Z,9.80
2018-04-24T01:00:45.767Z,9.70
2018-04-24T01:03:12.015Z,9.80
2018-04-24T01:05:39.073Z,9.90
2018-04-24T01:08:05.335Z,9.90
2018-04-24T01:10:31.619Z,10.00
2018-04-24T01:12:58.509Z,10.10
2018-04-24T01:15:24.793Z,10.00
2018-04-24T01:17:51.787Z,10.00
2018-04-24T01:20:17.990Z,10.00
2018-04-24T01:22:44.243Z,10.00
2018-04-24T01:25:10.456Z,10.00
2018-04-24T01:27:36.801Z,9.90
2018-04-24T01:30:03.056Z,9.80
2018-04-24T01:32:29.314Z,9.80
2018-04-24T01:34:55.517Z,9.80
2018-04-24T01:37:21.775Z,9.90
2018-04-24T01:39:48.712Z,10.10
2018-04-24T01:42:15.683Z,10.10
2018-04-24T01:44:41.959Z,10.10
2018-04-24T01:47:08.189Z,10.10
2018-04-24T01:49:34.559Z,10.20
2018-04-24T01:52:00.744Z,10.20
2018-04-24T01:54:26.887Z,10.10
2018-04-24T01:56:53.032Z,10.20
2018-04-24T01:59:20.016Z,10.10
2018-04-24T02:01:46.243Z,10.10
2018-04-24T02:04:12.471Z,10.10
2018-04-24T02:06:38.728Z,10.00
2018-04-24T02:09:05.015Z,10.00
2018-04-24T02:11:31.203Z,10.00
2018-04-24T02:13:57.366Z,10.00
2018-04-24T02:16:23.590Z,9.90
2018-04-24T02:18:49.846Z,9.90
2018-04-24T02:21:16.191Z,9.90
2018-04-24T02:23:42.425Z,9.90
2018-04-24T02:26:08.683Z,9.90
2018-04-24T02:28:35.620Z,10.00
2018-04-24T02:31:01.783Z,10.10
2018-04-24T02:33:27.999Z,10.10
2018-04-24T02:35:54.985Z,10.30
2018-04-24T02:38:21.956Z,10.30
2018-04-24T02:40:48.164Z,10.30
2018-04-24T02:43:14.339Z,10.40
2018-04-24T02:45:41.280Z,10.40
2018-04-24T02:48:08.266Z,10.30
2018-04-24T02:50:34.495Z,10.30
2018-04-24T02:53:00.797Z,10.30
2018-04-24T02:55:27.012Z,10.30
2018-04-24T02:57:53.915Z,10.20
2018-04-24T03:00:20.164Z,10.20
2018-04-24T03:02:46.400Z,10.20
2018-04-24T03:05:12.707Z,10.20
2018-04-24T03:07:38.887Z,10.30
2018-04-24T03:10:05.162Z,10.30
2018-04-24T03:12:31.381Z,10.30
2018-04-24T03:14:57.636Z,10.30
2018-04-24T03:17:23.782Z,10.30
2018-04-24T03:19:50.710Z,10.40
2018-04-24T03:22:16.858Z,10.30
2018-04-24T03:24:43.828Z,10.50
2018-04-24T03:27:10.104Z,10.40
2018-04-24T03:29:37.035Z,10.50
2018-04-24T03:32:04.122Z,10.50
2018-04-24T03:34:31.060Z,10.50
2018-04-24T03:36:58.117Z,10.50
2018-04-24T03:39:25.047Z,10.50
2018-04-24T03:41:51.191Z,10.50
2018-04-24T03:44:18.051Z,10.60
2018-04-24T03:46:44.195Z,10.60
2018-04-24T03:49:10.317Z,10.70
2018-04-24T03:51:36.500Z,10.80
2018-04-24T03:54:02.651Z,10.80
2018-04-24T03:56:28.808Z,10.80
2018-04-24T03:58:54.998Z,10.80
2018-04-24T04:01:21.219Z,10.80
2018-04-24T04:03:48.144Z,10.80
2018-04-24T04:06:14.335Z,10.80
2018-04-24T04:08:40.484Z,10.70
2018-04-24T04:11:06.651Z,10.70
2018-04-24T04:13:33.592Z,10.70
2018-04-24T04:16:00.601Z,10.70
2018-04-24T04:18:39.224Z,10.60
2018-04-24T04:21:17.751Z,10.70
2018-04-24T04:23:57.133Z,10.60
2018-04-24T04:26:23.272Z,10.60
2018-04-24T04:28:49.497Z,10.60
2018-04-24T04:31:15.632Z,10.60
2018-04-24T04:33:41.876Z,10.50
2018-04-24T04:36:08.028Z,10.50
2018-04-24T04:38:34.255Z,10.50
2018-04-24T04:41:00.404Z,10.50
2018-04-24T04:43:27.287Z,10.40
2018-04-24T04:45:53.411Z,10.30
2018-04-24T04:48:19.621Z,10.40
2018-04-24T04:50:45.763Z,10.40
2018-04-24T04:53:11.971Z,10.40
2018-04-24T04:55:38.139Z,10.40
2018-04-24T04:58:05.087Z,10.50
2018-04-24T05:00:31.352Z,10.50
2018-04-24T05:02:58.287Z,10.50
2018-04-24T05:05:26.456Z,10.60
2018-04-24T05:07:52.644Z,10.60
2018-04-24T05:10:18.847Z,10.70
2018-04-24T05:12:45.235Z,10.80
2018-04-24T05:15:11.482Z,10.90
2018-04-24T05:17:38.452Z,11.00
2018-04-24T05:20:04.719Z,10.90
2018-04-24T05:22:30.978Z,11.00
2018-04-24T05:24:57.130Z,11.10
2018-04-24T05:27:23.267Z,11.10
2018-04-24T05:29:49.393Z,11.20
2018-04-24T05:32:15.591Z,11.20
2018-04-24T05:34:42.483Z,11.40
2018-04-24T05:37:08.661Z,11.40
2018-04-24T05:39:35.604Z,11.30
2018-04-24T05:42:03.570Z,11.30
2018-04-24T05:44:29.725Z,11.20
2018-04-24T05:46:55.939Z,11.20
2018-04-24T05:49:22.843Z,11.40
2018-04-24T05:51:49.107Z,11.40
2018-04-24T05:54:16.062Z,11.30
2018-04-24T05:56:42.275Z,11.30
2018-04-24T05:59:09.263Z,11.40
2018-04-24T06:01:35.401Z,11.40
2018-04-24T06:04:01.525Z,11.40
2018-04-24T06:06:27.672Z,11.40
2018-04-24T06:08:53.800Z,11.40
2018-04-24T06:11:19.993Z,11.40
2018-04-24T06:13:46.148Z,11.30
2018-04-24T06:16:12.343Z,11.30
2018-04-24T06:18:38.480Z,11.40
2018-04-24T06:21:04.709Z,11.40
2018-04-24T06:23:30.836Z,11.50
2018-04-24T06:25:56.963Z,11.50
2018-04-24T06:28:23.141Z,11.60
2018-04-24T06:30:49.259Z,11.60
2018-04-24T06:33:16.147Z,11.60
2018-04-24T06:35:42.289Z,11.60
2018-04-24T06:38:08.420Z,11.60
2018-04-24T06:40:34.595Z,11.70
2018-04-24T06:43:01.503Z,12.00
2018-04-24T06:45:27.823Z,12.00
2018-04-24T06:47:53.964Z,12.10
2018-04-24T06:50:20.103Z,11.90
2018-04-24T06:52:46.268Z,11.90
2018-04-24T06:55:12.402Z,11.70
2018-04-24T06:57:38.548Z,11.80
2018-04-24T07:00:04.688Z,11.80
2018-04-24T07:02:30.966Z,11.80
2018-04-24T07:04:57.112Z,11.70
2018-04-24T07:07:23.231Z,11.70
2018-04-24T07:09:49.372Z,11.90
2018-04-24T07:12:15.545Z,11.90
2018-04-24T07:14:42.414Z,12.00
2018-04-24T07:17:09.279Z,11.70
2018-04-24T07:19:35.427Z,11.70
2018-04-24T07:22:01.588Z,11.70
2018-04-24T07:24:27.733Z,11.60
2018-04-24T07:26:54.624Z,11.50
2018-04-24T07:29:20.744Z,11.50
2018-04-24T07:31:46.888Z,11.60
2018-04-24T07:34:13.052Z,11.40
2018-04-24T07:36:39.943Z,11.50
2018-04-24T07:39:06.159Z,11.50
2018-04-24T07:41:32.337Z,11.60
2018-04-24T07:43:58.492Z,11.70
2018-04-24T07:46:24.694Z,11.80
2018-04-24T07:48:50.904Z,12.00
2018-04-24T07:51:17.048Z,12.10
2018-04-24T07:53:43.944Z,12.10
2018-04-24T07:56:10.177Z,12.10
2018-04-24T07:58:36.317Z,12.10
2018-04-24T08:01:02.527Z,12.10
2018-04-24T08:03:28.647Z,12.10
2018-04-24T08:05:54.855Z,12.30
2018-04-24T08:08:20.980Z,12.30
2018-04-24T08:10:47.150Z,12.40
2018-04-24T08:13:14.027Z,12.50
2018-04-24T08:15:40.990Z,12.40
2018-04-24T08:18:07.905Z,12.30
2018-04-24T08:20:34.205Z,12.30
2018-04-24T08:23:01.087Z,12.10
2018-04-24T08:25:27.986Z,12.00
2018-04-24T08:27:54.168Z,12.00
2018-04-24T08:30:21.180Z,12.10
2018-04-24T08:32:47.465Z,12.10
2018-04-24T08:35:14.679Z,12.10
2018-04-24T08:37:40.905Z,12.00
2018-04-24T08:40:07.096Z,11.90
2018-04-24T08:42:33.256Z,11.70
2018-04-24T08:44:59.397Z,11.80
2018-04-24T08:47:26.269Z,11.90
2018-04-24T08:49:52.495Z,11.90
2018-04-24T08:52:18.626Z,11.90
2018-04-24T08:54:44.812Z,11.80
2018-04-24T08:57:10.953Z,11.80
2018-04-24T08:59:37.164Z,11.70
2018-04-24T09:02:03.339Z,11.80
2018-04-24T09:04:29.532Z,11.70
2018-04-24T09:06:56.440Z,11.70
2018-04-24T09:09:22.619Z,11.80
2018-04-24T09:11:48.847Z,11.80
2018-04-24T09:14:14.989Z,12.00
2018-04-24T09:16:41.104Z,12.00
2018-04-24T09:19:07.245Z,12.10
2018-04-24T09:21:33.512Z,12.20
2018-04-24T09:23:59.676Z,12.20
2018-04-24T09:26:25.816Z,12.30
2018-04-24T09:28:51.944Z,12.40
2018-04-24T09:31:18.256Z,12.30
2018-04-24T09:33:44.475Z,12.50
2018-04-24T09:36:10.584Z,12.60
2018-04-24T09:38:36.705Z,12.60
2018-04-24T09:41:03.125Z,12.70
2018-04-24T09:43:29.347Z,12.70
2018-04-24T09:45:55.558Z,12.80
2018-04-24T09:48:21.679Z,12.90
2018-04-24T09:50:47.930Z,12.80
2018-04-24T09:53:14.055Z,12.70
2018-04-24T09:55:40.208Z,12.70
2018-04-24T09:58:06.407Z,12.80
2018-04-24T10:00:36.521Z,12.90
2018-04-24T10:03:02.652Z,12.80
2018-04-24T10:05:28.858Z,12.60
2018-04-24T10:07:55.105Z,12.40
2018-04-24T10:10:21.169Z,12.50
2018-04-24T10:12:48.090Z,12.30
2018-04-24T10:15:14.256Z,12.30
2018-04-24T10:17:41.192Z,12.40
2018-04-24T10:20:08.072Z,12.40
2018-04-24T10:22:34.188Z,12.40
2018-04-24T10:25:00.323Z,12.40
2018-04-24T10:27:26.513Z,12.40
2018-04-24T10:29:53.401Z,11.90
2018-04-24T10:32:19.606Z,11.90
2018-04-24T10:34:45.783Z,11.70
2018-04-24T10:37:11.982Z,11.60
2018-04-24T10:39:38.120Z,11.60
2018-04-24T10:42:04.251Z,11.70
2018-04-24T10:44:31.230Z,11.90
2018-04-24T10:46:58.110Z,12.10
2018-04-24T10:49:24.232Z,12.10
2018-04-24T10:51:50.535Z,12.20
2018-04-24T10:54:16.753Z,12.30
2018-04-24T10:56:42.879Z,12.30
2018-04-24T10:59:09.012Z,12.30
2018-04-24T11:01:35.139Z,12.40
2018-04-24T11:04:01.327Z,12.30
2018-04-24T11:06:27.555Z,12.40
2018-04-24T11:08:53.742Z,12.40
2018-04-24T11:11:19.876Z,12.50
2018-04-24T11:13:46.005Z,12.50
2018-04-24T11:16:12.252Z,12.40
2018-04-24T11:18:38.407Z,12.70
2018-04-24T11:21:04.585Z,12.70
2018-04-24T11:23:30.721Z,12.80
2018-04-24T11:25:56.852Z,12.80
2018-04-24T11:28:24.851Z,12.70
2018-04-24T11:30:50.987Z,12.70
2018-04-24T11:33:17.356Z,12.70
2018-04-24T11:35:44.220Z,12.70
2018-04-24T11:38:10.339Z,12.70
2018-04-24T11:40:36.508Z,12.70
2018-04-24T11:43:02.652Z,12.50
2018-04-24T11:45:28.814Z,12.60
2018-04-24T11:47:54.969Z,12.50
2018-04-24T11:50:21.156Z,12.50
2018-04-24T11:52:48.117Z,12.50
2018-04-24T11:55:14.299Z,12.50
2018-04-24T11:57:40.449Z,12.50
2018-04-24T12:00:07.341Z,12.70
2018-04-24T12:02:33.557Z,12.70
2018-04-24T12:04:59.766Z,12.60
2018-04-24T12:07:25.940Z,12.60
2018-04-24T12:09:52.101Z,12.60
2018-04-24T12:15:10.074Z,12.80
2018-04-24T12:17:36.272Z,12.90
2018-04-24T12:20:03.200Z,13.00
2018-04-24T12:22:29.325Z,13.00
2018-04-24T12:24:55.462Z,13.00
2018-04-24T12:27:22.352Z,12.80
2018-04-24T12:29:48.500Z,12.80
2018-04-24T12:32:14.800Z,12.90
2018-04-24T12:34:40.948Z,13.00
2018-04-24T12:37:07.074Z,13.00
2018-04-24T12:39:33.252Z,13.00
2018-04-24T12:42:00.217Z,13.40
2018-04-24T12:44:26.357Z,13.30
2018-04-24T12:46:52.742Z,13.50
2018-04-24T12:49:19.027Z,13.60
2018-04-24T12:51:45.243Z,13.50
2018-04-24T12:54:11.413Z,13.50
2018-04-24T12:56:37.554Z,13.50
2018-04-24T12:59:03.771Z,13.60
2018-04-24T13:01:29.944Z,13.90
2018-04-24T13:03:56.161Z,14.20
2018-04-24T13:06:22.505Z,14.40
2018-04-24T13:08:48.641Z,14.50
2018-04-24T13:11:14.775Z,14.50
2018-04-24T13:13:40.955Z,14.70
2018-04-24T13:16:07.079Z,14.80
2018-04-24T13:18:33.237Z,14.90
2018-04-24T13:21:00.160Z,15.80
2018-04-24T13:23:27.056Z,16.40
2018-04-24T13:25:53.200Z,16.40
2018-04-24T13:28:19.390Z,17.40
2018-04-24T13:30:45.571Z,17.60
2018-04-24T13:33:11.695Z,16.50
2018-04-24T13:35:37.940Z,16.10
2018-04-24T13:38:04.879Z,15.90
2018-04-24T13:40:31.863Z,15.70
2018-04-24T13:42:58.072Z,15.70
2018-04-24T13:45:24.379Z,15.70
2018-04-24T13:47:50.658Z,15.70
2018-04-24T13:50:16.908Z,15.40
2018-04-24T13:52:43.063Z,14.90
2018-04-24T13:55:09.356Z,14.90
2018-04-24T13:57:35.505Z,15.00
2018-04-24T14:00:01.834Z,14.90
2018-04-24T14:02:28.801Z,14.90
2018-04-24T14:04:55.740Z,14.80
2018-04-24T14:07:21.982Z,14.80
2018-04-24T14:09:48.135Z,14.70
2018-04-24T14:12:14.342Z,14.50
2018-04-24T14:14:40.553Z,14.30
2018-04-24T14:17:07.018Z,14.40
2018-04-24T14:19:34.248Z,14.30
2018-04-24T14:22:01.173Z,14.30
2018-04-24T14:24:27.455Z,14.30
2018-04-24T14:26:53.727Z,14.30
2018-04-24T14:29:20.060Z,14.30
2018-04-24T14:31:46.195Z,14.30
2018-04-24T14:34:12.441Z,14.30
2018-04-24T14:36:39.381Z,14.30
2018-04-24T14:39:06.416Z,14.20
2018-04-24T14:41:32.588Z,14.20
2018-04-24T14:43:58.785Z,14.20
2018-04-24T14:46:25.704Z,14.00
2018-04-24T14:48:51.856Z,14.00
2018-04-24T14:51:18.773Z,13.70
2018-04-24T14:53:45.013Z,13.70
2018-04-24T14:59:05.096Z,13.60
2018-04-24T15:01:31.219Z,13.70
2018-04-24T15:03:57.378Z,13.70
2018-04-24T15:06:24.226Z,13.60
2018-04-24T15:08:50.495Z,13.50
2018-04-24T15:11:16.657Z,13.50
2018-04-24T15:13:43.510Z,13.50
2018-04-24T15:16:10.355Z,13.40
2018-04-24T15:18:36.463Z,13.40
2018-04-24T15:21:02.741Z,13.50
2018-04-24T15:23:29.807Z,13.70
2018-04-24T15:25:56.690Z,13.70
2018-04-24T15:28:22.897Z,13.80
2018-04-24T15:30:49.025Z,14.00
2018-04-24T15:33:15.285Z,14.20
2018-04-24T15:35:41.402Z,14.10
2018-04-24T15:38:08.559Z,14.00
2018-04-24T15:40:34.672Z,14.00
2018-04-24T15:43:00.846Z,14.00
2018-04-24T15:45:27.101Z,14.00
2018-04-24T15:47:53.987Z,14.10
2018-04-24T15:50:20.847Z,14.30
2018-04-24T15:52:47.032Z,14.30
2018-04-24T15:55:13.186Z,14.40
2018-04-24T15:57:40.130Z,14.10
2018-04-24T16:00:06.302Z,14.10
2018-04-24T16:02:32.413Z,14.10
2018-04-24T16:04:58.526Z,13.90
2018-04-24T16:07:24.776Z,14.00
2018-04-24T16:09:51.091Z,13.90
2018-04-24T16:12:17.459Z,13.80
2018-04-24T16:14:43.618Z,13.80
2018-04-24T16:17:09.826Z,13.80
2018-04-24T16:19:36.699Z,13.80
2018-04-24T16:22:02.907Z,13.70
2018-04-24T16:24:33.111Z,13.80
2018-04-24T16:27:00.432Z,13.70
2018-04-24T16:29:26.538Z,13.80
2018-04-24T16:31:52.638Z,13.80
2018-04-24T16:34:20.329Z,13.90
2018-04-24T16:36:47.461Z,13.90
2018-04-24T16:39:13.669Z,13.90
2018-04-24T16:41:39.826Z,14.00
2018-04-24T16:44:06.691Z,14.20
2018-04-24T16:46:32.925Z,14.20
2018-04-24T16:48:58.987Z,14.20
2018-04-24T16:51:25.095Z,14.20
2018-04-24T16:53:52.029Z,14.20
2018-04-24T16:56:18.131Z,14.20
2018-04-24T16:58:44.259Z,14.10
2018-04-24T17:01:10.365Z,14.00
2018-04-24T17:03:36.502Z,14.00
2018-04-24T17:06:02.721Z,14.00
2018-04-24T17:08:28.871Z,13.90
2018-04-24T17:10:55.004Z,13.90
2018-04-24T17:13:21.163Z,13.90
2018-04-24T17:15:47.298Z,13.90
2018-04-24T17:18:13.580Z,13.90
2018-04-24T17:20:41.361Z,13.90
2018-04-24T17:23:07.857Z,13.80
2018-04-24T17:25:34.011Z,13.90
2018-04-24T17:28:00.684Z,13.90
2018-04-24T17:30:27.675Z,13.90
2018-04-24T17:32:55.874Z,13.80
2018-04-24T17:35:22.036Z,13.80
2018-04-24T17:37:48.457Z,13.70
2018-04-24T17:40:14.584Z,13.70
2018-04-24T17:42:40.893Z,13.70
2018-04-24T17:45:07.268Z,13.70
2018-04-24T17:47:33.551Z,13.70
2018-04-24T17:49:59.982Z,13.70
2018-04-24T17:52:33.201Z,13.60
2018-04-24T17:54:59.464Z,13.60
2018-04-24T17:57:26.570Z,13.50
2018-04-24T17:59:52.699Z,13.50
2018-04-24T18:05:49.491Z,13.50
2018-04-24T18:08:15.650Z,13.40
2018-04-24T18:10:43.078Z,13.40
2018-04-24T18:13:09.623Z,13.40
2018-04-24T18:15:36.560Z,13.40
2018-04-24T18:18:03.678Z,13.40
2018-04-24T18:20:30.620Z,13.50
2018-04-24T18:22:57.155Z,13.50
2018-04-24T18:25:23.279Z,13.40
2018-04-24T18:27:49.494Z,13.50
2018-04-24T18:30:15.686Z,13.40
2018-04-24T18:32:41.887Z,13.40
2018-04-24T18:35:08.090Z,13.30
2018-04-24T18:37:34.620Z,13.30
2018-04-24T18:40:00.776Z,13.30
2018-04-24T18:42:26.987Z,13.30
2018-04-24T18:44:53.405Z,13.30
2018-04-24T18:47:20.519Z,13.20
2018-04-24T18:49:48.747Z,13.30
2018-04-24T18:52:14.903Z,13.30
2018-04-24T18:54:41.075Z,13.20
2018-04-24T18:57:07.275Z,13.20
2018-04-24T18:59:33.390Z,13.20
2018-04-24T19:02:00.365Z,13.30
2018-04-24T19:04:27.457Z,13.30
2018-04-24T19:06:53.853Z,13.30
2018-04-24T19:09:21.030Z,13.30
2018-04-24T19:11:47.309Z,13.30
2018-04-24T19:14:19.659Z,13.30
2018-04-24T19:16:46.544Z,13.40
2018-04-24T19:19:18.955Z,13.40
2018-04-24T19:21:45.447Z,13.50
2018-04-24T19:24:17.980Z,13.50
2018-04-24T19:26:44.243Z,13.50
2018-04-24T19:29:10.579Z,13.40
2018-04-24T19:31:42.791Z,13.40
2018-04-24T19:34:09.059Z,13.40
2018-04-24T19:36:35.313Z,13.30
2018-04-24T19:39:08.343Z,13.10
2018-04-24T19:41:40.662Z,13.00
2018-04-24T19:44:06.850Z,13.00
2018-04-24T19:46:32.961Z,12.90
2018-04-24T19:49:06.403Z,12.80
2018-04-24T19:51:32.483Z,12.80
2018-04-24T19:53:59.604Z,12.80
2018-04-24T19:56:26.448Z,12.90
2018-04-24T19:58:53.319Z,12.90
2018-04-24T20:01:19.427Z,12.90
2018-04-24T20:03:45.639Z,12.90
2018-04-24T20:06:11.801Z,13.00
2018-04-24T20:08:38.026Z,13.00
2018-04-24T20:11:04.286Z,12.90
2018-04-24T20:13:30.503Z,13.00
2018-04-24T20:15:56.697Z,13.00
2018-04-24T20:18:24.747Z,12.90
2018-04-24T20:20:50.890Z,12.90
2018-04-24T20:23:17.017Z,12.90
2018-04-24T20:25:43.162Z,12.90
2018-04-24T20:28:09.384Z,13.00
2018-04-24T20:30:35.544Z,13.00
2018-04-24T20:33:01.751Z,13.00
2018-04-24T20:35:29.246Z,12.90
2018-04-24T20:37:55.411Z,12.80
2018-04-24T20:40:21.550Z,12.80
2018-04-24T20:42:47.725Z,12.80
2018-04-24T20:45:14.666Z,12.80
2018-04-24T20:47:41.584Z,12.80
2018-04-24T20:50:07.795Z,12.80
2018-04-24T20:52:33.971Z,12.80
2018-04-24T20:55:00.200Z,12.80
2018-04-24T20:57:26.390Z,12.70
2018-04-24T20:59:52.593Z,12.70
2018-04-24T21:02:18.706Z,12.70
2018-04-24T21:04:44.885Z,12.70
2018-04-24T21:07:11.116Z,12.70
2018-04-24T21:09:37.271Z,12.80
2018-04-24T21:12:04.297Z,12.80
2018-04-24T21:14:30.458Z,12.70
2018-04-24T21:16:56.645Z,12.80
2018-04-24T21:19:22.849Z,12.70
2018-04-24T21:21:49.083Z,12.80
2018-04-24T21:24:15.244Z,12.80
2018-04-24T21:26:42.203Z,12.80
2018-04-24T21:29:08.327Z,12.80
2018-04-24T21:31:34.501Z,12.80
2018-04-24T21:34:00.611Z,12.80
2018-04-24T21:36:26.770Z,12.80
2018-04-24T21:38:52.944Z,12.70
2018-04-24T21:41:19.892Z,12.70
2018-04-24T21:43:46.213Z,12.70
2018-04-24T21:46:12.338Z,12.70
2018-04-24T21:48:38.519Z,12.70
2018-04-24T21:51:04.747Z,12.70
2018-04-24T21:53:31.688Z,12.70
2018-04-24T21:55:57.882Z,12.70
2018-04-24T21:58:24.791Z,12.80
2018-04-24T22:00:51.006Z,12.80
2018-04-24T22:03:17.180Z,12.80
2018-04-24T22:05:43.379Z,12.90
2018-04-24T22:08:09.585Z,12.90
2018-04-24T22:10:35.840Z,12.80
2018-04-24T22:13:02.031Z,12.90
2018-04-24T22:15:28.216Z,12.90
2018-04-24T22:17:55.347Z,12.90
2018-04-24T22:20:21.555Z,12.90
2018-04-24T22:22:47.719Z,12.90
2018-04-24T22:25:13.851Z,12.90
2018-04-24T22:27:40.011Z,12.90
2018-04-24T22:30:06.205Z,13.00
2018-04-24T22:32:34.420Z,13.00
2018-04-24T22:35:00.581Z,13.00
2018-04-24T22:37:26.728Z,13.00
2018-04-24T22:39:52.859Z,12.90
2018-04-24T22:42:19.015Z,12.90
2018-04-24T22:44:45.250Z,12.80
2018-04-24T22:47:12.412Z,12.70
2018-04-24T22:49:38.554Z,12.60
2018-04-24T22:52:04.690Z,12.60
2018-04-24T22:54:30.827Z,12.60
2018-04-24T22:56:57.074Z,12.60
2018-04-24T22:59:23.254Z,12.70
2018-04-24T23:01:49.455Z,12.70
2018-04-24T23:04:15.649Z,12.60
2018-04-24T23:06:42.555Z,12.60
2018-04-24T23:09:08.734Z,12.50
2018-04-24T23:11:47.240Z,12.50
2018-04-24T23:14:25.685Z,12.60
2018-04-24T23:17:04.095Z,12.60
2018-04-24T23:19:42.643Z,12.60
2018-04-24T23:22:08.875Z,12.50
2018-04-24T23:24:35.004Z,12.50
2018-04-24T23:27:01.308Z,12.40
2018-04-24T23:29:27.433Z,12.50
2018-04-24T23:31:54.351Z,12.50
2018-04-24T23:34:21.336Z,12.50
2018-04-24T23:36:47.546Z,12.50
2018-04-24T23:39:13.783Z,12.50
2018-04-24T23:41:39.931Z,12.50
2018-04-24T23:44:06.183Z,12.40
2018-04-24T23:46:32.316Z,12.40
2018-04-24T23:48:59.310Z,12.40
2018-04-24T23:51:25.553Z,12.40
2018-04-24T23:53:51.759Z,12.40
2018-04-24T23:56:17.913Z,12.50
2018-04-24T23:58:44.055Z,12.50
